createdAt,value
2018-03-22T00:00:08.929Z,8.6
2018-03-22T00:01:11.350Z,8.6
2018-03-22T00:02:13.779Z,8.6
2018-03-22T00:03:16.494Z,8.6
2018-03-22T00:04:18.920Z,8.6
2018-03-22T00:05:21.335Z,8.7
2018-03-22T00:06:24.048Z,8.6
2018-03-22T00:07:26.488Z,8.6
2018-03-22T00:08:28.914Z,8.7
2018-03-22T00:09:31.344Z,8.7
2018-03-22T00:10:33.767Z,8.7
2018-03-22T00:11:36.494Z,8.7
2018-03-22T00:12:38.913Z,8.7
2018-03-22T00:13:41.348Z,8.7
2018-03-22T00:14:43.764Z,8.6
2018-03-22T00:15:46.215Z,8.6
2018-03-22T00:16:48.641Z,8.6
2018-03-22T00:17:51.069Z,8.6
2018-03-22T00:18:53.492Z,8.5
2018-03-22T00:19:56.225Z,8.5
2018-03-22T00:20:58.656Z,8.5
2018-03-22T00:22:01.101Z,8.5
2018-03-22T00:23:03.969Z,8.5
2018-03-22T00:24:06.501Z,8.5
2018-03-22T00:25:08.936Z,8.5
2018-03-22T00:26:11.719Z,8.5
2018-03-22T00:27:14.392Z,8.5
2018-03-22T00:28:17.111Z,8.5
2018-03-22T00:29:19.536Z,8.5
2018-03-22T00:30:21.976Z,8.5
2018-03-22T00:31:24.391Z,8.5
2018-03-22T00:32:26.818Z,8.5
2018-03-22T00:33:29.324Z,8.5
2018-03-22T00:34:31.769Z,8.5
2018-03-22T00:35:34.179Z,8.5
2018-03-22T00:36:36.640Z,8.4
2018-03-22T00:37:39.066Z,8.4
2018-03-22T00:38:41.478Z,8.4
2018-03-22T00:39:43.905Z,8.4
2018-03-22T00:40:46.625Z,8.4
2018-03-22T00:41:49.047Z,8.4
2018-03-22T00:42:51.463Z,8.4
2018-03-22T00:43:54.193Z,8.4
2018-03-22T00:44:56.617Z,8.4
2018-03-22T00:45:59.058Z,8.4
2018-03-22T00:47:01.787Z,8.4
2018-03-22T00:48:04.200Z,8.3
2018-03-22T00:49:06.629Z,8.4
2018-03-22T00:50:09.353Z,8.4
2018-03-22T00:51:11.870Z,8.3
2018-03-22T00:52:14.287Z,8.3
2018-03-22T00:53:17.003Z,8.3
2018-03-22T00:54:19.502Z,8.3
2018-03-22T00:55:21.937Z,8.3
2018-03-22T00:56:24.653Z,8.3
2018-03-22T00:57:27.079Z,8.2
2018-03-22T00:58:29.511Z,8.2
2018-03-22T00:59:32.220Z,8.2
2018-03-22T01:00:34.654Z,8.1
2018-03-22T01:01:37.082Z,8.1
2018-03-22T01:02:39.513Z,8.1
2018-03-22T01:03:41.940Z,8.1
2018-03-22T01:04:44.389Z,8.1
2018-03-22T01:05:46.811Z,8.1
2018-03-22T01:06:49.240Z,8.1
2018-03-22T01:07:51.953Z,8.1
2018-03-22T01:08:54.379Z,8.1
2018-03-22T01:09:57.086Z,8.1
2018-03-22T01:10:59.519Z,8.1
2018-03-22T01:12:02.535Z,8.1
2018-03-22T01:13:05.018Z,8.1
2018-03-22T01:14:07.439Z,8.1
2018-03-22T01:15:10.157Z,8.1
2018-03-22T01:16:12.611Z,8.1
2018-03-22T01:17:15.039Z,8.1
2018-03-22T01:18:17.468Z,8.1
2018-03-22T01:19:19.876Z,8.1
2018-03-22T01:20:22.656Z,8.1
2018-03-22T01:21:25.080Z,8.1
2018-03-22T01:22:27.499Z,8.1
2018-03-22T01:23:29.938Z,8.1
2018-03-22T01:24:32.375Z,8.1
2018-03-22T01:25:35.103Z,8.1
2018-03-22T01:26:37.530Z,8.1
2018-03-22T01:27:39.986Z,8.1
2018-03-22T01:28:42.402Z,8.1
2018-03-22T01:29:45.118Z,8
2018-03-22T01:30:47.548Z,8
2018-03-22T01:31:49.965Z,8
2018-03-22T01:32:52.399Z,8
2018-03-22T01:33:54.818Z,8
2018-03-22T01:34:57.242Z,8
2018-03-22T01:35:59.990Z,8
2018-03-22T01:37:02.410Z,8
2018-03-22T01:38:04.824Z,8
2018-03-22T01:39:07.255Z,8
2018-03-22T01:40:09.708Z,8
2018-03-22T01:41:12.136Z,8
2018-03-22T01:42:14.559Z,8
2018-03-22T01:43:17.017Z,8
2018-03-22T01:44:19.720Z,8
2018-03-22T01:45:22.155Z,8
2018-03-22T01:46:24.574Z,8
2018-03-22T01:47:26.996Z,8.1
2018-03-22T01:48:29.432Z,8.1
2018-03-22T01:49:31.851Z,8.1
2018-03-22T01:50:34.285Z,8.1
2018-03-22T01:51:36.697Z,8.1
2018-03-22T01:52:39.117Z,8.1
2018-03-22T01:53:41.871Z,8.1
2018-03-22T01:54:44.866Z,8.1
2018-03-22T01:55:47.298Z,8.1
2018-03-22T01:56:49.716Z,8.2
2018-03-22T01:57:52.143Z,8.2
2018-03-22T01:58:54.569Z,8.1
2018-03-22T01:59:57.309Z,8.2
2018-03-22T02:00:59.732Z,8.2
2018-03-22T02:02:02.158Z,8.2
2018-03-22T02:03:04.585Z,8.2
2018-03-22T02:04:07.083Z,8.2
2018-03-22T02:05:09.506Z,8.2
2018-03-22T02:06:11.923Z,8.2
2018-03-22T02:07:14.359Z,8.2
2018-03-22T02:08:16.787Z,8.2
2018-03-22T02:09:19.202Z,8.2
2018-03-22T02:10:21.932Z,8.2
2018-03-22T02:11:24.369Z,8.2
2018-03-22T02:12:26.796Z,8.2
2018-03-22T02:13:29.500Z,8.2
2018-03-22T02:14:31.925Z,8.2
2018-03-22T02:15:34.354Z,8.2
2018-03-22T02:16:36.779Z,8.2
2018-03-22T02:17:39.203Z,8.2
2018-03-22T02:18:41.905Z,8.2
2018-03-22T02:19:44.330Z,8.2
2018-03-22T02:20:46.789Z,8.2
2018-03-22T02:21:49.775Z,8.2
2018-03-22T02:22:52.211Z,8.2
2018-03-22T02:23:54.609Z,8.2
2018-03-22T02:24:57.324Z,8.2
2018-03-22T02:26:00.300Z,8.2
2018-03-22T02:27:02.724Z,8.2
2018-03-22T02:28:05.139Z,8.2
2018-03-22T02:29:07.849Z,8.2
2018-03-22T02:30:10.276Z,8.2
2018-03-22T02:31:12.709Z,8.1
2018-03-22T02:32:15.172Z,8.1
2018-03-22T02:33:17.588Z,8.1
2018-03-22T02:34:20.013Z,8.1
2018-03-22T02:35:22.740Z,8
2018-03-22T02:36:25.460Z,8.1
2018-03-22T02:37:27.962Z,8
2018-03-22T02:38:30.390Z,8
2018-03-22T02:39:32.821Z,8
2018-03-22T02:40:35.245Z,8
2018-03-22T02:41:37.672Z,7.9
2018-03-22T02:42:40.406Z,7.9
2018-03-22T02:43:42.819Z,7.8
2018-03-22T02:44:45.563Z,7.8
2018-03-22T02:45:48.270Z,7.7
2018-03-22T02:46:50.695Z,7.7
2018-03-22T02:47:53.113Z,7.7
2018-03-22T02:48:56.122Z,7.6
2018-03-22T02:49:58.831Z,7.6
2018-03-22T02:51:01.309Z,7.6
2018-03-22T02:52:04.205Z,7.5
2018-03-22T02:53:06.581Z,7.5
2018-03-22T02:54:09.009Z,7.5
2018-03-22T02:55:11.435Z,7.5
2018-03-22T02:56:14.158Z,7.4
2018-03-22T02:57:16.601Z,7.4
2018-03-22T02:58:19.001Z,7.4
2018-03-22T02:59:21.751Z,7.4
2018-03-22T03:00:24.495Z,7.4
2018-03-22T03:01:26.886Z,7.3
2018-03-22T03:02:29.310Z,7.3
2018-03-22T03:03:31.733Z,7.3
2018-03-22T03:04:34.504Z,7.3
2018-03-22T03:05:36.926Z,7.2
2018-03-22T03:06:39.685Z,7.2
2018-03-22T03:07:42.407Z,7.2
2018-03-22T03:08:45.428Z,7.1
2018-03-22T03:09:48.138Z,7.1
2018-03-22T03:10:50.601Z,7.1
2018-03-22T03:11:53.029Z,7.1
2018-03-22T03:12:55.450Z,7.1
2018-03-22T03:13:57.879Z,7
2018-03-22T03:15:00.301Z,7
2018-03-22T03:16:03.037Z,7
2018-03-22T03:17:05.828Z,7
2018-03-22T03:18:08.251Z,7
2018-03-22T03:19:10.957Z,7
2018-03-22T03:20:13.680Z,7
2018-03-22T03:21:16.104Z,6.9
2018-03-22T03:22:18.828Z,6.9
2018-03-22T03:23:21.235Z,6.9
2018-03-22T03:24:23.666Z,6.9
2018-03-22T03:25:26.088Z,6.9
2018-03-22T03:26:28.517Z,6.8
2018-03-22T03:27:30.935Z,6.8
2018-03-22T03:28:33.358Z,6.8
2018-03-22T03:29:35.771Z,6.8
2018-03-22T03:30:38.490Z,6.8
2018-03-22T03:31:41.203Z,6.7
2018-03-22T03:32:43.631Z,6.7
2018-03-22T03:33:46.050Z,6.7
2018-03-22T03:34:48.486Z,6.7
2018-03-22T03:35:51.202Z,6.7
2018-03-22T03:36:53.620Z,6.7
2018-03-22T03:37:56.043Z,6.7
2018-03-22T03:38:58.467Z,6.7
2018-03-22T03:40:00.889Z,6.6
2018-03-22T03:41:03.326Z,6.6
2018-03-22T03:42:06.031Z,6.6
2018-03-22T03:43:08.450Z,6.6
2018-03-22T03:44:10.891Z,6.6
2018-03-22T03:45:13.373Z,6.5
2018-03-22T03:46:16.080Z,6.5
2018-03-22T03:47:18.498Z,6.5
2018-03-22T03:48:20.933Z,6.5
2018-03-22T03:49:23.615Z,6.5
2018-03-22T03:50:26.046Z,6.5
2018-03-22T03:51:28.831Z,6.5
2018-03-22T03:52:31.256Z,6.5
2018-03-22T03:53:33.683Z,6.5
2018-03-22T03:54:36.107Z,6.5
2018-03-22T03:55:38.536Z,6.5
2018-03-22T03:56:40.958Z,6.5
2018-03-22T03:57:43.376Z,6.5
2018-03-22T03:58:46.386Z,6.5
2018-03-22T03:59:48.809Z,6.5
2018-03-22T04:00:51.228Z,6.5
2018-03-22T04:01:53.655Z,6.5
2018-03-22T04:02:56.080Z,6.6
2018-03-22T04:03:58.552Z,6.6
2018-03-22T04:05:01.252Z,6.5
2018-03-22T04:06:03.670Z,6.5
2018-03-22T04:07:06.685Z,6.5
2018-03-22T04:08:09.110Z,6.5
2018-03-22T04:09:11.588Z,6.5
2018-03-22T04:10:14.597Z,6.5
2018-03-22T04:11:17.315Z,6.5
2018-03-22T04:12:19.738Z,6.5
2018-03-22T04:13:22.161Z,6.5
2018-03-22T04:14:24.889Z,6.5
2018-03-22T04:15:27.601Z,6.4
2018-03-22T04:16:30.093Z,6.4
2018-03-22T04:17:32.523Z,6.4
2018-03-22T04:18:34.975Z,6.4
2018-03-22T04:19:37.392Z,6.3
2018-03-22T04:20:39.813Z,6.3
2018-03-22T04:21:42.244Z,6.3
2018-03-22T04:22:44.668Z,6.3
2018-03-22T04:23:47.093Z,6.3
2018-03-22T04:24:49.507Z,6.3
2018-03-22T04:25:51.927Z,6.3
2018-03-22T04:26:54.358Z,6.3
2018-03-22T04:27:56.769Z,6.3
2018-03-22T04:28:59.180Z,6.4
2018-03-22T04:30:01.698Z,6.4
2018-03-22T04:31:04.425Z,6.4
2018-03-22T04:32:06.860Z,6.4
2018-03-22T04:33:09.283Z,6.4
2018-03-22T04:34:11.701Z,6.4
2018-03-22T04:35:14.413Z,6.4
2018-03-22T04:36:17.162Z,6.4
2018-03-22T04:37:19.875Z,6.4
2018-03-22T04:38:22.290Z,6.4
2018-03-22T04:39:24.766Z,6.4
2018-03-22T04:40:27.357Z,6.4
2018-03-22T04:41:30.055Z,6.4
2018-03-22T04:42:32.773Z,6.4
2018-03-22T04:43:35.195Z,6.4
2018-03-22T04:44:37.909Z,6.4
2018-03-22T04:45:40.342Z,6.4
2018-03-22T04:46:42.762Z,6.4
2018-03-22T04:47:45.182Z,6.4
2018-03-22T04:48:47.683Z,6.4
2018-03-22T04:49:50.099Z,6.4
2018-03-22T04:50:52.806Z,6.4
2018-03-22T04:51:55.223Z,6.4
2018-03-22T04:52:57.644Z,6.4
2018-03-22T04:54:00.072Z,6.4
2018-03-22T04:55:02.581Z,6.4
2018-03-22T04:56:05.336Z,6.4
2018-03-22T04:57:07.767Z,6.3
2018-03-22T04:58:10.190Z,6.4
2018-03-22T04:59:12.620Z,6.3
2018-03-22T05:00:15.042Z,6.3
2018-03-22T05:01:17.461Z,6.3
2018-03-22T05:02:20.174Z,6.3
2018-03-22T05:03:22.812Z,6.3
2018-03-22T05:04:25.527Z,6.3
2018-03-22T05:05:27.938Z,6.3
2018-03-22T05:06:30.668Z,6.3
2018-03-22T05:07:33.109Z,6.3
2018-03-22T05:08:35.528Z,6.3
2018-03-22T05:09:37.941Z,6.3
2018-03-22T05:10:40.365Z,6.3
2018-03-22T05:11:43.072Z,6.3
2018-03-22T05:12:45.500Z,6.3
2018-03-22T05:14:17.972Z,6.3
2018-03-22T05:15:20.393Z,6.3
2018-03-22T05:16:22.818Z,6.3
2018-03-22T05:17:25.327Z,6.3
2018-03-22T05:18:28.090Z,6.3
2018-03-22T05:19:30.515Z,6.3
2018-03-22T05:20:32.942Z,6.3
2018-03-22T05:21:35.367Z,6.3
2018-03-22T05:22:37.853Z,6.3
2018-03-22T05:23:40.315Z,6.3
2018-03-22T05:24:42.733Z,6.3
2018-03-22T05:25:45.162Z,6.3
2018-03-22T05:26:47.864Z,6.3
2018-03-22T05:27:50.359Z,6.3
2018-03-22T05:28:52.779Z,6.3
2018-03-22T05:29:55.197Z,6.2
2018-03-22T05:30:57.624Z,6.3
2018-03-22T05:32:00.055Z,6.3
2018-03-22T05:33:02.484Z,6.2
2018-03-22T05:34:04.910Z,6.3
2018-03-22T05:35:07.330Z,6.3
2018-03-22T05:36:09.775Z,6.3
2018-03-22T05:37:12.355Z,6.3
2018-03-22T05:38:14.726Z,6.3
2018-03-22T05:39:17.148Z,6.3
2018-03-22T05:40:19.576Z,6.3
2018-03-22T05:41:21.987Z,6.3
2018-03-22T05:42:24.417Z,6.3
2018-03-22T05:43:26.835Z,6.3
2018-03-22T05:44:29.842Z,6.3
2018-03-22T05:45:32.555Z,6.3
2018-03-22T05:46:35.272Z,6.3
2018-03-22T05:47:37.687Z,6.3
2018-03-22T05:48:40.144Z,6.3
2018-03-22T05:49:42.830Z,6.3
2018-03-22T05:50:45.265Z,6.3
2018-03-22T05:51:47.687Z,6.3
2018-03-22T05:52:50.112Z,6.3
2018-03-22T05:53:52.539Z,6.4
2018-03-22T05:54:55.245Z,6.4
2018-03-22T05:55:57.656Z,6.4
2018-03-22T05:57:00.088Z,6.4
2018-03-22T05:58:02.498Z,6.4
2018-03-22T05:59:04.926Z,6.4
2018-03-22T06:00:07.349Z,6.5
2018-03-22T06:01:09.781Z,6.5
2018-03-22T06:02:12.200Z,6.4
2018-03-22T06:03:14.631Z,6.4
2018-03-22T06:04:17.043Z,6.5
2018-03-22T06:05:19.476Z,6.5
2018-03-22T06:06:21.894Z,6.5
2018-03-22T06:07:24.602Z,6.5
2018-03-22T06:08:27.021Z,6.5
2018-03-22T06:09:29.736Z,6.6
2018-03-22T06:10:32.158Z,6.5
2018-03-22T06:11:34.588Z,6.6
2018-03-22T06:12:36.999Z,6.6
2018-03-22T06:13:39.429Z,6.6
2018-03-22T06:14:41.852Z,6.6
2018-03-22T06:15:44.572Z,6.6
2018-03-22T06:16:47.300Z,6.6
2018-03-22T06:17:49.723Z,6.6
2018-03-22T06:18:52.443Z,6.6
2018-03-22T06:19:55.142Z,6.7
2018-03-22T06:20:57.569Z,6.6
2018-03-22T06:21:59.992Z,6.6
2018-03-22T06:23:02.699Z,6.6
2018-03-22T06:24:05.127Z,6.6
2018-03-22T06:25:07.839Z,6.6
2018-03-22T06:26:10.255Z,6.6
2018-03-22T06:27:12.977Z,6.6
2018-03-22T06:28:15.400Z,6.6
2018-03-22T06:29:18.116Z,6.6
2018-03-22T06:30:20.545Z,6.6
2018-03-22T06:31:22.959Z,6.5
2018-03-22T06:32:25.705Z,6.6
2018-03-22T06:33:28.419Z,6.6
2018-03-22T06:34:30.839Z,6.6
2018-03-22T06:35:33.264Z,6.6
2018-03-22T06:36:35.694Z,6.6
2018-03-22T06:37:38.134Z,6.6
2018-03-22T06:38:40.551Z,6.6
2018-03-22T06:39:42.969Z,6.6
2018-03-22T06:40:45.405Z,6.6
2018-03-22T06:41:47.824Z,6.6
2018-03-22T06:42:50.244Z,6.6
2018-03-22T06:43:52.661Z,6.6
2018-03-22T06:44:55.088Z,6.6
2018-03-22T06:45:57.808Z,6.7
2018-03-22T06:47:00.527Z,6.7
2018-03-22T06:48:02.939Z,6.7
2018-03-22T06:49:05.369Z,6.7
2018-03-22T06:50:07.789Z,6.7
2018-03-22T06:51:10.206Z,6.7
2018-03-22T06:52:12.648Z,6.7
2018-03-22T06:53:15.081Z,6.7
2018-03-22T06:54:17.793Z,6.8
2018-03-22T06:55:20.224Z,6.7
2018-03-22T06:56:22.642Z,6.8
2018-03-22T06:57:25.144Z,6.7
2018-03-22T06:58:27.776Z,6.8
2018-03-22T06:59:30.189Z,6.8
2018-03-22T07:00:32.613Z,6.8
2018-03-22T07:01:35.036Z,6.8
2018-03-22T07:02:37.464Z,6.8
2018-03-22T07:03:40.174Z,6.8
2018-03-22T07:04:42.610Z,6.8
2018-03-22T07:05:45.033Z,6.8
2018-03-22T07:06:47.456Z,6.8
2018-03-22T07:07:49.882Z,6.8
2018-03-22T07:08:52.600Z,6.9
2018-03-22T07:09:55.017Z,6.9
2018-03-22T07:10:57.445Z,6.9
2018-03-22T07:11:59.850Z,6.9
2018-03-22T07:13:02.567Z,6.9
2018-03-22T07:14:05.001Z,6.9
2018-03-22T07:15:07.427Z,6.9
2018-03-22T07:16:10.143Z,6.9
2018-03-22T07:17:12.568Z,6.9
2018-03-22T07:18:14.994Z,6.9
2018-03-22T07:19:17.420Z,6.9
2018-03-22T07:20:19.846Z,6.9
2018-03-22T07:21:22.563Z,7
2018-03-22T07:22:25.299Z,7
2018-03-22T07:23:27.740Z,7
2018-03-22T07:24:30.451Z,7
2018-03-22T07:25:33.207Z,7
2018-03-22T07:26:35.580Z,7
2018-03-22T07:27:38.002Z,7.1
2018-03-22T07:28:40.432Z,7.1
2018-03-22T07:29:42.858Z,7.1
2018-03-22T07:30:45.845Z,7.1
2018-03-22T07:31:48.564Z,7.1
2018-03-22T07:32:51.012Z,7.1
2018-03-22T07:33:53.436Z,7.2
2018-03-22T07:34:55.864Z,7.2
2018-03-22T07:35:58.300Z,7.3
2018-03-22T07:37:00.722Z,7.2
2018-03-22T07:38:03.438Z,7.3
2018-03-22T07:39:05.857Z,7.3
2018-03-22T07:40:08.290Z,7.3
2018-03-22T07:41:10.716Z,7.3
2018-03-22T07:42:13.133Z,7.3
2018-03-22T07:43:15.554Z,7.3
2018-03-22T07:44:17.982Z,7.3
2018-03-22T07:45:20.413Z,7.3
2018-03-22T07:46:23.421Z,7.3
2018-03-22T07:47:25.828Z,7.3
2018-03-22T07:48:28.267Z,7.3
2018-03-22T07:49:30.677Z,7.4
2018-03-22T07:50:33.102Z,7.4
2018-03-22T07:51:35.528Z,7.4
2018-03-22T07:52:37.961Z,7.4
2018-03-22T07:53:40.375Z,7.4
2018-03-22T07:54:42.809Z,7.4
2018-03-22T07:55:45.224Z,7.4
2018-03-22T07:56:47.656Z,7.4
2018-03-22T07:57:50.372Z,7.4
2018-03-22T07:58:52.807Z,7.4
2018-03-22T07:59:55.221Z,7.4
2018-03-22T08:00:57.984Z,7.4
2018-03-22T08:02:00.404Z,7.4
2018-03-22T08:03:03.154Z,7.5
2018-03-22T08:04:05.871Z,7.5
2018-03-22T08:05:08.293Z,7.5
2018-03-22T08:06:10.720Z,7.5
2018-03-22T08:07:13.153Z,7.6
2018-03-22T08:08:15.861Z,7.6
2018-03-22T08:09:18.303Z,7.6
2018-03-22T08:10:21.004Z,7.6
2018-03-22T08:11:23.432Z,7.6
2018-03-22T08:12:25.899Z,7.7
2018-03-22T08:13:28.292Z,7.7
2018-03-22T08:14:30.731Z,7.7
2018-03-22T08:15:33.178Z,7.7
2018-03-22T08:16:35.898Z,7.7
2018-03-22T08:17:38.338Z,7.7
2018-03-22T08:18:40.825Z,7.7
2018-03-22T08:19:43.248Z,7.8
2018-03-22T08:20:45.691Z,7.7
2018-03-22T08:21:48.113Z,7.7
2018-03-22T08:22:50.540Z,7.7
2018-03-22T08:23:52.982Z,7.8
2018-03-22T08:24:55.419Z,7.8
2018-03-22T08:25:57.849Z,7.8
2018-03-22T08:27:00.314Z,7.8
2018-03-22T08:28:02.735Z,7.8
2018-03-22T08:29:05.468Z,7.9
2018-03-22T08:30:07.898Z,7.9
2018-03-22T08:31:10.361Z,7.9
2018-03-22T08:32:13.076Z,7.9
2018-03-22T08:33:15.520Z,7.9
2018-03-22T08:34:17.944Z,7.9
2018-03-22T08:35:20.401Z,7.9
2018-03-22T08:36:22.830Z,8
2018-03-22T08:37:25.553Z,8
2018-03-22T08:38:27.986Z,8
2018-03-22T08:39:30.411Z,8
2018-03-22T08:40:32.892Z,8
2018-03-22T08:41:35.321Z,8
2018-03-22T08:42:37.809Z,8
2018-03-22T08:43:40.246Z,8
2018-03-22T08:44:42.664Z,8
2018-03-22T08:45:45.152Z,8
2018-03-22T08:46:47.874Z,8
2018-03-22T08:47:50.295Z,8
2018-03-22T08:48:52.738Z,8
2018-03-22T08:49:55.161Z,8
2018-03-22T08:50:57.583Z,8
2018-03-22T08:52:00.018Z,8.1
2018-03-22T08:53:02.449Z,8.1
2018-03-22T08:54:04.879Z,8.1
2018-03-22T08:55:07.297Z,8.1
2018-03-22T08:56:09.715Z,8.1
2018-03-22T08:57:12.190Z,8.1
2018-03-22T08:58:14.627Z,8.1
2018-03-22T08:59:17.044Z,8.1
2018-03-22T09:00:20.797Z,8.1
2018-03-22T09:01:23.573Z,8.2
2018-03-22T09:02:26.305Z,8.2
2018-03-22T09:03:28.720Z,8.2
2018-03-22T09:04:31.157Z,8.2
2018-03-22T09:05:33.614Z,8.2
2018-03-22T09:06:36.050Z,8.1
2018-03-22T09:07:38.477Z,8.2
2018-03-22T09:08:40.907Z,8.2
2018-03-22T09:09:43.653Z,8.2
2018-03-22T09:10:46.087Z,8.2
2018-03-22T09:11:48.806Z,8.2
2018-03-22T09:12:51.794Z,8.2
2018-03-22T09:13:54.223Z,8.2
2018-03-22T09:14:56.943Z,8.2
2018-03-22T09:15:59.377Z,8.3
2018-03-22T09:17:01.810Z,8.3
2018-03-22T09:18:04.231Z,8.3
2018-03-22T09:19:06.657Z,8.3
2018-03-22T09:20:09.097Z,8.3
2018-03-22T09:21:11.522Z,8.4
2018-03-22T09:22:13.946Z,8.3
2018-03-22T09:23:16.378Z,8.4
2018-03-22T09:24:19.091Z,8.4
2018-03-22T09:25:21.536Z,8.4
2018-03-22T09:26:24.254Z,8.4
2018-03-22T09:27:26.672Z,8.4
2018-03-22T09:28:29.098Z,8.4
2018-03-22T09:29:31.524Z,8.5
2018-03-22T09:30:33.952Z,8.5
2018-03-22T09:31:36.961Z,8.5
2018-03-22T09:32:39.391Z,8.5
2018-03-22T09:33:41.819Z,8.5
2018-03-22T09:34:44.242Z,8.5
2018-03-22T09:35:46.663Z,8.5
2018-03-22T09:36:49.109Z,8.6
2018-03-22T09:37:51.531Z,8.5
2018-03-22T09:38:53.961Z,8.5
2018-03-22T09:39:56.393Z,8.6
2018-03-22T09:40:59.104Z,8.5
2018-03-22T09:42:01.546Z,8.6
2018-03-22T09:43:04.262Z,8.6
2018-03-22T09:44:07.034Z,8.6
2018-03-22T09:45:09.467Z,8.6
2018-03-22T09:46:11.902Z,8.6
2018-03-22T09:47:14.615Z,8.6
2018-03-22T09:48:17.045Z,8.6
2018-03-22T09:49:19.741Z,8.6
2018-03-22T09:50:22.181Z,8.6
2018-03-22T09:51:24.627Z,8.6
2018-03-22T09:52:27.323Z,8.6
2018-03-22T09:53:29.776Z,8.7
2018-03-22T09:54:32.499Z,8.7
2018-03-22T09:55:34.932Z,8.7
2018-03-22T09:56:37.367Z,8.8
2018-03-22T09:57:39.790Z,8.8
2018-03-22T09:58:42.204Z,8.8
2018-03-22T09:59:44.641Z,8.8
2018-03-22T10:00:47.071Z,8.8
2018-03-22T10:01:49.495Z,8.9
2018-03-22T10:02:51.937Z,8.9
2018-03-22T10:03:54.715Z,8.9
2018-03-22T10:04:57.142Z,8.9
2018-03-22T10:05:59.578Z,8.9
2018-03-22T10:07:02.008Z,8.9
2018-03-22T10:08:04.733Z,8.9
2018-03-22T10:09:07.148Z,8.9
2018-03-22T10:10:09.583Z,8.9
2018-03-22T10:11:12.008Z,8.9
2018-03-22T10:12:14.445Z,9
2018-03-22T10:13:16.880Z,9
2018-03-22T10:14:19.589Z,9
2018-03-22T10:15:22.011Z,9
2018-03-22T10:16:24.502Z,9.1
2018-03-22T10:17:27.151Z,9
2018-03-22T10:18:29.583Z,9.1
2018-03-22T10:19:32.330Z,9.1
2018-03-22T10:20:35.247Z,9.1
2018-03-22T10:21:37.724Z,9.1
2018-03-22T10:22:40.737Z,9.1
2018-03-22T10:23:43.160Z,9.2
2018-03-22T10:24:45.600Z,9.2
2018-03-22T10:25:48.031Z,9.2
2018-03-22T10:26:50.442Z,9.2
2018-03-22T10:27:52.874Z,9.2
2018-03-22T10:28:55.578Z,9.3
2018-03-22T10:29:58.010Z,9.3
2018-03-22T10:31:00.432Z,9.3
2018-03-22T10:32:02.878Z,9.3
2018-03-22T10:33:05.315Z,9.3
2018-03-22T10:34:07.730Z,9.3
2018-03-22T10:35:10.160Z,9.4
2018-03-22T10:36:12.898Z,9.4
2018-03-22T10:37:15.326Z,9.4
2018-03-22T10:38:18.067Z,9.5
2018-03-22T10:39:20.483Z,9.5
2018-03-22T10:40:22.935Z,9.5
2018-03-22T10:41:25.431Z,9.5
2018-03-22T10:42:27.914Z,9.6
2018-03-22T10:43:30.415Z,9.6
2018-03-22T10:44:32.929Z,9.6
2018-03-22T10:45:35.728Z,9.7
2018-03-22T10:46:38.224Z,9.7
2018-03-22T10:47:40.694Z,9.7
2018-03-22T10:48:43.189Z,9.7
2018-03-22T10:49:45.951Z,9.7
2018-03-22T10:50:48.445Z,9.7
2018-03-22T10:51:51.467Z,9.7
2018-03-22T10:52:53.905Z,9.7
2018-03-22T10:53:56.381Z,9.7
2018-03-22T10:54:58.794Z,9.8
2018-03-22T10:56:01.316Z,9.8
2018-03-22T10:57:03.788Z,9.9
2018-03-22T10:58:06.272Z,9.9
2018-03-22T10:59:08.757Z,9.9
2018-03-22T11:00:11.256Z,9.9
2018-03-22T11:01:13.761Z,9.9
2018-03-22T11:02:16.192Z,9.9
2018-03-22T11:03:18.690Z,9.9
2018-03-22T11:04:21.125Z,10
2018-03-22T11:05:23.571Z,10
2018-03-22T11:06:25.998Z,10
2018-03-22T11:07:28.443Z,10
2018-03-22T11:08:30.878Z,10.1
2018-03-22T11:09:33.298Z,10.1
2018-03-22T11:10:35.730Z,10.1
2018-03-22T11:11:38.446Z,10.1
2018-03-22T11:12:40.886Z,10.1
2018-03-22T11:13:43.313Z,10.1
2018-03-22T11:14:46.303Z,10.1
2018-03-22T11:15:48.738Z,10.1
2018-03-22T11:16:51.178Z,10.1
2018-03-22T11:17:53.600Z,10.1
2018-03-22T11:18:56.052Z,10.1
2018-03-22T11:19:58.748Z,10.1
2018-03-22T11:21:01.180Z,10.2
2018-03-22T11:22:04.183Z,10.2
2018-03-22T11:23:06.609Z,10.2
2018-03-22T11:24:09.039Z,10.3
2018-03-22T11:25:11.473Z,10.3
2018-03-22T11:26:13.893Z,10.3
2018-03-22T11:27:16.320Z,10.4
2018-03-22T11:28:19.030Z,10.4
2018-03-22T11:29:21.463Z,10.4
2018-03-22T11:30:23.885Z,10.4
2018-03-22T11:31:26.327Z,10.4
2018-03-22T11:32:28.751Z,10.4
2018-03-22T11:33:31.174Z,10.4
2018-03-22T11:34:33.614Z,10.5
2018-03-22T11:35:36.036Z,10.5
2018-03-22T11:36:38.463Z,10.5
2018-03-22T11:37:40.905Z,10.6
2018-03-22T11:38:43.325Z,10.6
2018-03-22T11:39:45.762Z,10.6
2018-03-22T11:40:48.195Z,10.6
2018-03-22T11:41:50.641Z,10.6
2018-03-22T11:42:53.076Z,10.6
2018-03-22T11:43:55.789Z,10.7
2018-03-22T11:44:58.209Z,10.7
2018-03-22T11:46:00.637Z,10.7
2018-03-22T11:47:03.651Z,10.7
2018-03-22T11:48:06.078Z,10.7
2018-03-22T11:49:08.507Z,10.8
2018-03-22T11:50:10.943Z,10.8
2018-03-22T11:51:13.963Z,10.8
2018-03-22T11:52:16.389Z,10.8
2018-03-22T11:53:18.845Z,10.9
2018-03-22T11:54:21.283Z,10.9
2018-03-22T11:55:24.015Z,11
2018-03-22T11:56:26.472Z,11
2018-03-22T11:57:28.873Z,11.1
2018-03-22T11:58:31.311Z,11.1
2018-03-22T11:59:33.748Z,11.1
2018-03-22T12:00:36.176Z,11.1
2018-03-22T12:01:38.606Z,11.1
2018-03-22T12:02:41.024Z,11.1
2018-03-22T12:03:43.457Z,11.1
2018-03-22T12:04:45.912Z,11.1
2018-03-22T12:05:48.324Z,11.1
2018-03-22T12:06:50.756Z,11.1
2018-03-22T12:07:53.186Z,11.1
2018-03-22T12:08:55.619Z,11.1
2018-03-22T12:09:58.054Z,11.2
2018-03-22T12:11:00.537Z,11.2
2018-03-22T12:12:03.260Z,11.2
2018-03-22T12:13:05.981Z,11.3
2018-03-22T12:14:08.410Z,11.3
2018-03-22T12:15:10.830Z,11.3
2018-03-22T12:16:13.274Z,11.4
2018-03-22T12:17:15.703Z,11.4
2018-03-22T12:18:18.137Z,11.4
2018-03-22T12:19:20.643Z,11.4
2018-03-22T12:20:23.140Z,11.4
2018-03-22T12:21:25.622Z,11.4
2018-03-22T12:22:28.347Z,11.4
2018-03-22T12:23:30.776Z,11.4
2018-03-22T12:24:33.227Z,11.4
2018-03-22T12:25:36.371Z,11.5
2018-03-22T12:26:38.797Z,11.5
2018-03-22T12:27:41.516Z,11.5
2018-03-22T12:28:44.235Z,11.5
2018-03-22T12:29:46.672Z,11.6
2018-03-22T12:30:49.092Z,11.7
2018-03-22T12:31:51.526Z,11.7
2018-03-22T12:32:54.249Z,11.7
2018-03-22T12:33:56.682Z,11.7
2018-03-22T12:34:59.111Z,11.8
2018-03-22T12:36:01.562Z,11.8
2018-03-22T12:37:03.979Z,11.8
2018-03-22T12:38:06.728Z,11.8
2018-03-22T12:39:09.162Z,11.8
2018-03-22T12:40:11.591Z,11.8
2018-03-22T12:41:14.050Z,11.9
2018-03-22T12:42:16.478Z,11.9
2018-03-22T12:43:18.937Z,11.9
2018-03-22T12:44:21.348Z,11.9
2018-03-22T12:45:23.777Z,12
2018-03-22T12:46:26.209Z,12
2018-03-22T12:47:28.701Z,12.1
2018-03-22T12:48:31.128Z,12.1
2018-03-22T12:49:33.661Z,12.1
2018-03-22T12:50:36.094Z,12.1
2018-03-22T12:51:38.825Z,12.2
2018-03-22T12:52:41.256Z,12.2
2018-03-22T12:53:43.692Z,12.2
2018-03-22T12:54:46.115Z,12.2
2018-03-22T12:55:48.563Z,12.3
2018-03-22T12:56:50.988Z,12.3
2018-03-22T12:57:53.432Z,12.2
2018-03-22T12:58:56.153Z,12.3
2018-03-22T12:59:58.641Z,12.3
2018-03-22T13:01:01.344Z,12.3
2018-03-22T13:02:04.089Z,12.3
2018-03-22T13:03:06.804Z,12.3
2018-03-22T13:04:09.248Z,12.4
2018-03-22T13:05:11.704Z,12.4
2018-03-22T13:06:14.426Z,12.4
2018-03-22T13:07:16.862Z,12.5
2018-03-22T13:08:19.306Z,12.5
2018-03-22T13:09:22.053Z,12.5
2018-03-22T13:10:24.534Z,12.5
2018-03-22T13:11:27.284Z,12.5
2018-03-22T13:12:30.008Z,12.6
2018-03-22T13:13:33.028Z,12.6
2018-03-22T13:14:35.533Z,12.6
2018-03-22T13:15:38.007Z,12.6
2018-03-22T13:16:40.816Z,12.6
2018-03-22T13:17:43.313Z,12.7
2018-03-22T13:18:46.144Z,12.7
2018-03-22T13:19:48.690Z,12.7
2018-03-22T13:20:51.161Z,12.7
2018-03-22T13:21:53.679Z,12.7
2018-03-22T13:22:56.391Z,12.7
2018-03-22T13:23:58.823Z,12.8
2018-03-22T13:25:01.257Z,12.8
2018-03-22T13:26:03.695Z,12.8
2018-03-22T13:27:06.130Z,12.8
2018-03-22T13:28:08.865Z,12.8
2018-03-22T13:29:11.595Z,12.8
2018-03-22T13:30:14.333Z,12.8
2018-03-22T13:31:16.769Z,12.8
2018-03-22T13:32:19.253Z,12.7
2018-03-22T13:33:22.332Z,12.8
2018-03-22T13:34:25.068Z,12.8
2018-03-22T13:35:27.550Z,12.8
2018-03-22T13:36:30.262Z,12.9
2018-03-22T13:37:32.695Z,12.9
2018-03-22T13:38:35.127Z,12.9
2018-03-22T13:39:37.562Z,13
2018-03-22T13:40:40.277Z,13
2018-03-22T13:41:42.718Z,13.1
2018-03-22T13:42:45.142Z,13.2
2018-03-22T13:43:47.598Z,13.2
2018-03-22T13:44:50.020Z,13.3
2018-03-22T13:45:52.461Z,13.4
2018-03-22T13:46:55.250Z,13.4
2018-03-22T13:47:57.686Z,13.5
2018-03-22T13:49:00.113Z,13.5
2018-03-22T13:50:02.623Z,13.6
2018-03-22T13:51:05.101Z,13.6
2018-03-22T13:52:07.881Z,13.6
2018-03-22T13:53:10.393Z,13.6
2018-03-22T13:54:12.886Z,13.6
2018-03-22T13:55:15.711Z,13.5
2018-03-22T13:56:18.173Z,13.5
2018-03-22T13:57:20.649Z,13.5
2018-03-22T13:58:23.133Z,13.6
2018-03-22T13:59:25.650Z,13.6
2018-03-22T14:00:28.149Z,13.6
2018-03-22T14:01:30.995Z,13.6
2018-03-22T14:02:33.492Z,13.6
2018-03-22T14:03:36.319Z,13.6
2018-03-22T14:04:38.748Z,13.6
2018-03-22T14:05:41.574Z,13.7
2018-03-22T14:06:44.003Z,13.7
2018-03-22T14:07:46.439Z,13.8
2018-03-22T14:08:49.158Z,13.8
2018-03-22T14:09:51.595Z,13.8
2018-03-22T14:10:54.029Z,13.9
2018-03-22T14:11:56.472Z,13.9
2018-03-22T14:12:58.897Z,13.9
2018-03-22T14:14:01.324Z,14
2018-03-22T14:15:04.070Z,14
2018-03-22T14:16:06.509Z,14.1
2018-03-22T14:17:09.225Z,14.1
2018-03-22T14:18:11.973Z,14.2
2018-03-22T14:19:14.383Z,14.2